Time;durP1;ratioP1;P1;durP2;ratioP2;P2;SDS_P1;SDS_P2;PMS_P1;PMS_P2;Temp;Humidity;BMP_temperature;BMP_pressure;BME280_temperature;BME280_humidity;BME280_pressure;Samples;Min_cycle;Max_cycle;Signal;HPM_P1;HPM_P2
2022/03/04 00:00:29;;;;;;;36.93;19.50;;;2.40;99.90;;;;;;5028181;28;20209;-66
2022/03/04 00:02:56;;;;;;;36.80;21.03;;;2.40;99.90;;;;;;5028105;28;20199;-66
2022/03/04 00:05:25;;;;;;;40.03;21.23;;;2.40;99.90;;;;;;5028104;28;20253;-65
2022/03/04 00:07:53;;;;;;;36.93;21.20;;;2.40;99.90;;;;;;5027922;28;20286;-66
2022/03/04 00:10:20;;;;;;;37.53;22.07;;;2.40;99.90;;;;;;5028088;28;20206;-66
2022/03/04 00:12:47;;;;;;;38.20;23.17;;;2.40;99.90;;;;;;5027842;28;20221;-66
2022/03/04 00:15:14;;;;;;;42.73;24.10;;;2.30;99.90;;;;;;5028642;28;20571;-64
2022/03/04 00:17:42;;;;;;;47.40;24.33;;;2.30;99.90;;;;;;5031437;28;20209;-66
2022/03/04 00:20:10;;;;;;;41.53;23.47;;;2.30;99.90;;;;;;5031198;28;20194;-66
2022/03/04 00:22:38;;;;;;;43.70;24.07;;;2.30;99.90;;;;;;5031605;28;20251;-66
2022/03/04 00:25:06;;;;;;;44.80;24.10;;;2.30;99.90;;;;;;5031198;28;20206;-65
2022/03/04 00:27:33;;;;;;;38.50;22.10;;;2.20;99.90;;;;;;5031156;28;20209;-65
2022/03/04 00:30:01;;;;;;;46.07;26.27;;;2.20;99.90;;;;;;5031251;28;20222;-66
2022/03/04 00:32:29;;;;;;;58.60;29.67;;;2.20;99.90;;;;;;5031247;28;20236;-65
2022/03/04 00:34:56;;;;;;;66.60;33.47;;;2.20;99.90;;;;;;5031375;28;20668;-66
2022/03/04 00:37:23;;;;;;;71.30;35.03;;;2.20;99.90;;;;;;5031073;28;20202;-66
2022/03/04 00:39:52;;;;;;;69.50;34.63;;;2.20;99.90;;;;;;5030984;28;20202;-65
2022/03/04 00:42:19;;;;;;;63.43;33.27;;;2.10;99.90;;;;;;5031050;28;20216;-65
2022/03/04 00:44:46;;;;;;;60.37;30.77;;;2.10;99.90;;;;;;5031093;28;20229;-67
2022/03/04 00:47:13;;;;;;;56.97;29.63;;;2.10;99.90;;;;;;5031275;28;20621;-65
2022/03/04 00:49:40;;;;;;;54.80;29.53;;;2.10;99.90;;;;;;5030654;28;20202;-65
2022/03/04 00:52:08;;;;;;;60.47;29.40;;;2.10;99.90;;;;;;5031316;28;20233;-66
2022/03/04 00:54:35;;;;;;;55.90;29.57;;;2.10;99.90;;;;;;5030722;28;20206;-66
2022/03/04 00:57:04;;;;;;;62.47;31.77;;;2.10;99.90;;;;;;5030908;28;20206;-66
2022/03/04 00:59:31;;;;;;;70.43;34.87;;;2.10;99.90;;;;;;5030635;28;20214;-66
2022/03/04 01:01:58;;;;;;;86.27;39.07;;;2.00;99.90;;;;;;5030551;28;20220;-65
2022/03/04 01:04:26;;;;;;;80.60;39.50;;;2.10;99.90;;;;;;5030705;28;20220;-66
2022/03/04 01:06:53;;;;;;;89.67;42.27;;;2.10;99.90;;;;;;5031042;28;20590;-65
2022/03/04 01:09:20;;;;;;;90.63;42.57;;;2.10;99.90;;;;;;5030850;28;20212;-66
2022/03/04 01:11:47;;;;;;;79.57;37.07;;;2.10;99.90;;;;;;5030571;28;20213;-66
2022/03/04 01:14:16;;;;;;;83.70;38.23;;;2.10;99.90;;;;;;5030493;28;20213;-64
2022/03/04 01:16:43;;;;;;;96.80;45.30;;;2.00;99.90;;;;;;5030290;28;20210;-66
2022/03/04 01:19:10;;;;;;;113.93;48.30;;;2.00;99.90;;;;;;5030309;28;20244;-66
2022/03/04 01:21:38;;;;;;;113.83;53.80;;;2.00;99.90;;;;;;5030282;28;20202;-66
2022/03/04 01:24:06;;;;;;;158.17;66.60;;;2.00;99.90;;;;;;5030323;28;20251;-66
2022/03/04 01:26:33;;;;;;;144.43;64.97;;;2.00;99.90;;;;;;5030206;28;20305;-66
2022/03/04 01:29:00;;;;;;;118.50;57.03;;;2.00;99.90;;;;;;5030277;28;20206;-65
2022/03/04 01:31:29;;;;;;;92.80;45.90;;;2.00;99.90;;;;;;5030494;28;20209;-66
2022/03/04 01:33:56;;;;;;;78.60;42.43;;;1.90;99.90;;;;;;5030253;28;20585;-65
2022/03/04 01:36:24;;;;;;;81.63;41.27;;;1.90;99.90;;;;;;5030144;28;20213;-66
2022/03/04 01:38:51;;;;;;;73.43;39.20;;;2.00;99.90;;;;;;5030179;27;20698;-65
2022/03/04 01:41:18;;;;;;;73.13;39.50;;;2.00;99.90;;;;;;5030808;28;20209;-66
2022/03/04 01:43:45;;;;;;;71.73;38.17;;;2.00;99.90;;;;;;5030229;28;20687;-66
2022/03/04 01:46:15;;;;;;;66.80;37.87;;;2.00;99.90;;;;;;5029930;28;20202;-67
2022/03/04 01:48:46;;;;;;;66.10;34.67;;;2.00;99.90;;;;;;5030100;28;20217;-66
2022/03/04 01:51:13;;;;;;;56.20;33.63;;;2.00;99.90;;;;;;5030035;28;20295;-66
2022/03/04 01:53:42;;;;;;;61.37;35.23;;;2.00;99.90;;;;;;5029745;28;20236;-66
2022/03/04 01:56:09;;;;;;;61.37;33.67;;;2.00;99.90;;;;;;5029934;28;20210;-67
2022/03/04 01:58:36;;;;;;;52.17;29.63;;;2.00;99.90;;;;;;5029949;28;20301;-65
2022/03/04 02:01:04;;;;;;;48.60;26.40;;;2.00;99.90;;;;;;5029748;28;20206;-66
2022/03/04 02:03:32;;;;;;;38.90;21.07;;;2.00;99.90;;;;;;5029718;28;20671;-68
2022/03/04 02:06:00;;;;;;;45.00;25.87;;;2.00;99.90;;;;;;5029713;28;20214;-67
2022/03/04 02:08:28;;;;;;;54.43;31.80;;;2.00;99.90;;;;;;5029587;28;20230;-66
2022/03/04 02:10:55;;;;;;;46.70;26.10;;;1.90;99.90;;;;;;5029557;28;20423;-66
2022/03/04 02:13:22;;;;;;;36.47;21.67;;;1.90;99.90;;;;;;5029537;28;20271;-65
2022/03/04 02:15:49;;;;;;;34.43;18.60;;;1.90;99.90;;;;;;5029708;28;20206;-68
2022/03/04 02:18:18;;;;;;;27.80;17.33;;;1.90;99.90;;;;;;5029309;28;20246;-65
2022/03/04 02:20:48;;;;;;;31.60;17.57;;;1.90;99.90;;;;;;5029582;28;20206;-66
2022/03/04 02:23:17;;;;;;;34.67;19.13;;;1.90;99.90;;;;;;5029372;28;20209;-66
2022/03/04 02:25:47;;;;;;;34.23;19.50;;;1.80;99.90;;;;;;5029296;28;20210;-64
2022/03/04 02:28:14;;;;;;;37.57;19.47;;;1.80;99.90;;;;;;5029325;28;20201;-65
2022/03/04 02:30:41;;;;;;;32.17;19.67;;;1.90;99.90;;;;;;5029177;28;20202;-65
2022/03/04 02:33:09;;;;;;;36.53;20.33;;;1.80;99.90;;;;;;5029233;28;20226;-65
2022/03/04 02:35:37;;;;;;;33.30;19.17;;;1.80;99.90;;;;;;5029061;28;20210;-65
2022/03/04 02:38:05;;;;;;;33.73;18.83;;;1.80;99.90;;;;;;5028896;28;20214;-66
2022/03/04 02:40:33;;;;;;;30.90;17.93;;;1.70;99.90;;;;;;5029375;28;20571;-65
2022/03/04 02:43:00;;;;;;;32.70;18.00;;;1.80;99.90;;;;;;5029435;28;20648;-66
2022/03/04 02:45:28;;;;;;;30.33;17.67;;;1.80;99.90;;;;;;5028943;28;20233;-65
2022/03/04 02:47:55;;;;;;;34.53;18.60;;;1.80;99.90;;;;;;5029039;28;20218;-65
2022/03/04 02:50:22;;;;;;;32.50;17.43;;;1.80;99.90;;;;;;5028993;28;20217;-66
2022/03/04 02:52:49;;;;;;;30.93;17.30;;;1.80;99.90;;;;;;5029028;28;20226;-65
2022/03/04 02:55:16;;;;;;;35.60;18.83;;;1.80;99.90;;;;;;5029011;28;20212;-66
2022/03/04 02:57:47;;;;;;;31.77;17.97;;;1.80;99.90;;;;;;5029156;28;20229;-65
2022/03/04 03:00:16;;;;;;;36.10;19.40;;;1.80;99.90;;;;;;5029198;28;20213;-65
2022/03/04 03:02:44;;;;;;;34.13;18.17;;;1.80;99.90;;;;;;5029389;28;20228;-66
2022/03/04 03:05:12;;;;;;;34.60;18.80;;;1.80;99.90;;;;;;5028824;28;20663;-65
2022/03/04 03:07:40;;;;;;;29.90;16.67;;;1.90;99.90;;;;;;5028908;28;20829;-65
2022/03/04 03:10:08;;;;;;;34.80;19.40;;;1.80;99.90;;;;;;5028959;28;20583;-66
2022/03/04 03:12:36;;;;;;;35.30;18.90;;;1.80;99.90;;;;;;5029024;28;20581;-65
2022/03/04 03:15:05;;;;;;;30.43;17.70;;;1.80;99.90;;;;;;5029124;28;20202;-65
2022/03/04 03:17:32;;;;;;;31.53;16.60;;;1.80;99.90;;;;;;5028855;28;20202;-66
2022/03/04 03:19:59;;;;;;;30.27;16.27;;;1.80;99.90;;;;;;5028544;28;20234;-65
2022/03/04 03:22:27;;;;;;;32.30;16.67;;;1.80;99.90;;;;;;5028767;28;20678;-66
2022/03/04 03:24:54;;;;;;;26.57;16.33;;;1.80;99.90;;;;;;5028566;28;20256;-66
2022/03/04 03:27:21;;;;;;;30.43;16.40;;;1.80;99.90;;;;;;5028345;28;20293;-65
2022/03/04 03:29:49;;;;;;;34.93;19.50;;;1.70;99.90;;;;;;5028563;28;20202;-65
2022/03/04 03:32:18;;;;;;;45.17;25.20;;;1.70;99.90;;;;;;5028522;28;20210;-65
2022/03/04 03:34:45;;;;;;;65.80;39.00;;;1.70;99.90;;;;;;5028640;28;20210;-66
2022/03/04 03:37:12;;;;;;;93.17;55.03;;;1.60;99.90;;;;;;5028643;28;20229;-66
2022/03/04 03:39:39;;;;;;;104.53;60.00;;;1.60;99.90;;;;;;5028511;28;20217;-65
2022/03/04 03:42:07;;;;;;;80.10;45.37;;;1.60;99.90;;;;;;5028340;28;20207;-65
2022/03/04 03:44:34;;;;;;;57.00;34.70;;;1.60;99.90;;;;;;5028186;28;20675;-65
2022/03/04 03:47:02;;;;;;;58.37;33.07;;;1.60;99.90;;;;;;5028308;28;20206;-66
2022/03/04 03:49:30;;;;;;;50.30;30.17;;;1.60;99.90;;;;;;5028120;28;20296;-65
2022/03/04 03:51:57;;;;;;;43.97;27.07;;;1.60;99.90;;;;;;5031154;28;20577;-66
2022/03/04 03:54:25;;;;;;;45.67;26.03;;;1.60;99.90;;;;;;5031552;28;20725;-67
2022/03/04 03:56:52;;;;;;;52.13;32.40;;;1.60;99.90;;;;;;5032019;28;20655;-66
2022/03/04 03:59:19;;;;;;;57.83;35.43;;;1.60;99.90;;;;;;5031586;28;20206;-66
2022/03/04 04:01:46;;;;;;;64.70;37.17;;;1.60;99.90;;;;;;5031538;28;20213;-66
2022/03/04 04:04:13;;;;;;;58.30;35.60;;;1.60;99.90;;;;;;5031796;28;20206;-65
2022/03/04 04:06:43;;;;;;;61.83;40.20;;;1.60;99.90;;;;;;5031961;28;20598;-66
2022/03/04 04:09:11;;;;;;;53.77;32.77;;;1.60;99.90;;;;;;5031447;28;20212;-66
2022/03/04 04:11:39;;;;;;;47.63;29.27;;;1.60;99.90;;;;;;5031792;28;20237;-66
2022/03/04 04:14:08;;;;;;;43.93;27.47;;;1.50;99.90;;;;;;5031349;28;20233;-65
2022/03/04 04:16:35;;;;;;;38.37;24.07;;;1.50;99.90;;;;;;5031321;28;20225;-66
2022/03/04 04:19:03;;;;;;;34.07;20.47;;;1.50;99.90;;;;;;5031086;28;20260;-65
2022/03/04 04:21:30;;;;;;;30.03;17.20;;;1.50;99.90;;;;;;5031154;28;20217;-65
2022/03/04 04:23:59;;;;;;;26.17;13.73;;;1.50;99.90;;;;;;5031586;28;20557;-65
2022/03/04 04:26:26;;;;;;;27.37;15.23;;;1.50;99.90;;;;;;5031360;28;20202;-65
2022/03/04 04:28:54;;;;;;;38.00;22.00;;;1.50;99.90;;;;;;5031516;28;20619;-65
2022/03/04 04:31:21;;;;;;;30.37;18.37;;;1.50;99.90;;;;;;5031340;28;20213;-66
2022/03/04 04:33:48;;;;;;;27.27;15.67;;;1.50;99.90;;;;;;5031177;28;20222;-65
2022/03/04 04:36:15;;;;;;;29.03;16.07;;;1.50;99.90;;;;;;5031248;28;20300;-65
2022/03/04 04:38:42;;;;;;;30.73;17.27;;;1.40;99.90;;;;;;5031450;28;20231;-66
2022/03/04 04:41:11;;;;;;;30.30;16.37;;;1.40;99.90;;;;;;5031183;28;20570;-66
2022/03/04 04:43:38;;;;;;;32.13;18.50;;;1.40;99.90;;;;;;5031010;28;20378;-66
2022/03/04 04:46:06;;;;;;;36.50;19.43;;;1.40;99.90;;;;;;5031086;28;20214;-66
2022/03/04 04:48:33;;;;;;;35.63;19.33;;;1.40;99.90;;;;;;5030856;28;20210;-65
2022/03/04 04:51:00;;;;;;;36.63;19.93;;;1.40;99.90;;;;;;5030836;28;20212;-66
2022/03/04 04:53:28;;;;;;;38.73;19.97;;;1.40;99.90;;;;;;5030678;28;20226;-66
2022/03/04 04:55:55;;;;;;;36.10;19.33;;;1.40;99.90;;;;;;5031078;28;20591;-66
2022/03/04 04:58:24;;;;;;;40.40;21.33;;;1.40;99.90;;;;;;5030598;28;20202;-66
2022/03/04 05:00:53;;;;;;;42.80;23.33;;;1.40;99.90;;;;;;5030842;28;20206;-66
2022/03/04 05:03:21;;;;;;;53.70;26.03;;;1.40;99.90;;;;;;5030617;28;20208;-65
2022/03/04 05:05:48;;;;;;;58.73;29.17;;;1.40;99.90;;;;;;5030716;28;20255;-66
2022/03/04 05:08:16;;;;;;;63.67;30.57;;;1.40;99.90;;;;;;5030760;28;20700;-66
2022/03/04 05:10:43;;;;;;;70.90;31.77;;;1.40;99.90;;;;;;5030475;28;20214;-67
2022/03/04 05:13:11;;;;;;;67.87;33.87;;;1.40;99.90;;;;;;5030355;28;20232;-65
2022/03/04 05:15:41;;;;;;;74.03;32.60;;;1.40;99.90;;;;;;5030788;28;20208;-67
2022/03/04 05:18:08;;;;;;;61.03;30.33;;;1.40;99.90;;;;;;5030164;28;20234;-65
2022/03/04 05:20:36;;;;;;;55.83;27.03;;;1.50;99.90;;;;;;5030513;28;20199;-65
2022/03/04 05:23:04;;;;;;;54.77;25.63;;;1.50;99.90;;;;;;5030229;28;20218;-66
2022/03/04 05:25:31;;;;;;;47.07;22.57;;;1.40;99.90;;;;;;5030320;28;20206;-65
2022/03/04 05:27:58;;;;;;;45.47;21.63;;;1.50;99.90;;;;;;5030317;28;20202;-66
2022/03/04 05:30:26;;;;;;;44.27;21.70;;;1.50;99.90;;;;;;5030322;28;20210;-66
2022/03/04 05:32:54;;;;;;;51.70;23.40;;;1.50;99.90;;;;;;5030194;28;20206;-66
2022/03/04 05:35:21;;;;;;;47.50;22.27;;;1.50;99.90;;;;;;5030140;28;20214;-65
2022/03/04 05:37:48;;;;;;;45.70;22.13;;;1.50;99.90;;;;;;5030292;28;20206;-66
2022/03/04 05:40:15;;;;;;;38.10;18.73;;;1.40;99.90;;;;;;5030297;28;20663;-66
2022/03/04 05:42:43;;;;;;;38.70;19.43;;;1.40;99.90;;;;;;5030430;28;20637;-66
2022/03/04 05:45:11;;;;;;;40.00;18.60;;;1.40;99.90;;;;;;5030028;28;20202;-66
2022/03/04 05:47:38;;;;;;;38.13;19.50;;;1.50;99.90;;;;;;5030444;28;20212;-65
2022/03/04 05:50:08;;;;;;;41.00;19.57;;;1.50;99.90;;;;;;5029893;28;20248;-66
2022/03/04 05:52:35;;;;;;;37.23;19.87;;;1.40;99.90;;;;;;5029965;28;20202;-66
2022/03/04 05:55:03;;;;;;;32.30;17.67;;;1.50;99.90;;;;;;5029725;28;20229;-66
2022/03/04 05:57:30;;;;;;;43.00;20.00;;;1.50;99.90;;;;;;5030153;28;20562;-65
2022/03/04 05:59:58;;;;;;;35.77;19.40;;;1.50;99.90;;;;;;5029848;28;20210;-67
2022/03/04 06:02:27;;;;;;;41.10;19.73;;;1.50;99.90;;;;;;5029660;28;20264;-66
2022/03/04 06:04:54;;;;;;;38.50;19.83;;;1.50;99.90;;;;;;5029802;28;20300;-66
2022/03/04 06:07:23;;;;;;;41.70;20.90;;;1.50;99.90;;;;;;5029631;28;20222;-66
2022/03/04 06:09:50;;;;;;;40.67;18.80;;;1.50;99.90;;;;;;5029474;28;20206;-66
2022/03/04 06:12:17;;;;;;;39.73;21.37;;;1.50;99.90;;;;;;5029589;28;20217;-67
2022/03/04 06:14:44;;;;;;;41.70;23.20;;;1.40;99.90;;;;;;5028730;28;20229;-66
2022/03/04 06:17:11;;;;;;;40.33;19.63;;;1.40;99.90;;;;;;5029728;28;20620;-67
2022/03/04 06:19:40;;;;;;;34.20;16.60;;;1.50;99.90;;;;;;5029365;28;20249;-66
2022/03/04 06:22:07;;;;;;;33.50;18.27;;;1.40;99.90;;;;;;5029632;28;20308;-66
2022/03/04 06:24:35;;;;;;;30.27;17.23;;;1.50;99.90;;;;;;5029796;28;20206;-66
2022/03/04 06:27:03;;;;;;;32.37;16.73;;;1.50;99.90;;;;;;5029628;28;20229;-66
2022/03/04 06:29:30;;;;;;;38.90;22.40;;;1.50;99.90;;;;;;5029590;28;20674;-65
2022/03/04 06:31:57;;;;;;;48.23;26.30;;;1.60;99.90;;;;;;5029219;28;20212;-65
2022/03/04 06:34:24;;;;;;;65.70;39.63;;;1.70;99.90;;;;;;5029575;28;20226;-66
2022/03/04 06:36:51;;;;;;;73.63;42.37;;;1.70;99.90;;;;;;5029380;28;20206;-65
2022/03/04 06:39:18;;;;;;;38.60;21.17;;;1.70;99.90;;;;;;5029522;28;20206;-67
2022/03/04 06:41:48;;;;;;;23.00;14.63;;;1.70;99.90;;;;;;5029259;28;20210;-65
2022/03/04 06:44:15;;;;;;;20.47;11.70;;;1.70;99.90;;;;;;5029349;28;20204;-66
2022/03/04 06:46:42;;;;;;;35.67;21.87;;;1.70;99.90;;;;;;5029533;28;20213;-65
2022/03/04 06:49:11;;;;;;;29.70;18.77;;;1.70;99.90;;;;;;5029022;28;20213;-65
2022/03/04 06:51:38;;;;;;;36.60;21.67;;;1.70;99.90;;;;;;5028919;28;20207;-67
2022/03/04 06:54:06;;;;;;;41.43;25.40;;;1.70;99.90;;;;;;5029440;28;20233;-66
2022/03/04 06:56:33;;;;;;;47.00;28.13;;;1.80;99.90;;;;;;5029368;28;20213;-66
2022/03/04 06:59:02;;;;;;;79.50;50.07;;;1.80;99.90;;;;;;5028779;28;20210;-67
2022/03/04 07:01:29;;;;;;;59.03;38.07;;;1.70;99.90;;;;;;5028867;28;20205;-67
2022/03/04 07:03:56;;;;;;;37.13;22.27;;;1.80;99.90;;;;;;5028901;28;20652;-65
2022/03/04 07:06:23;;;;;;;36.53;23.07;;;1.70;99.90;;;;;;5028740;28;20249;-65
2022/03/04 07:08:50;;;;;;;45.37;28.57;;;1.70;99.90;;;;;;5028934;28;20667;-66
2022/03/04 07:11:18;;;;;;;28.03;16.27;;;1.70;99.90;;;;;;5029008;28;20275;-65
2022/03/04 07:13:45;;;;;;;20.33;11.67;;;1.70;99.90;;;;;;5028828;28;20636;-65
2022/03/04 07:16:14;;;;;;;19.30;10.23;;;1.80;99.90;;;;;;5028514;28;20217;-65
2022/03/04 07:18:41;;;;;;;13.53;8.83;;;1.80;99.90;;;;;;5028445;28;20332;-65
2022/03/04 07:21:08;;;;;;;19.90;10.90;;;1.90;99.90;;;;;;5028276;28;20216;-66
2022/03/04 07:23:35;;;;;;;17.80;9.07;;;1.80;99.90;;;;;;5028590;28;20216;-65
2022/03/04 07:26:08;;;;;;;19.57;11.73;;;1.90;99.90;;;;;;5031257;28;20201;-68
2022/03/04 07:28:35;;;;;;;17.03;9.57;;;1.90;99.90;;;;;;5032541;28;20633;-66
2022/03/04 07:31:02;;;;;;;17.10;8.80;;;2.00;99.90;;;;;;5031995;28;20216;-65
2022/03/04 07:33:31;;;;;;;14.80;8.27;;;2.00;99.90;;;;;;5031940;27;20217;-65
2022/03/04 07:35:58;;;;;;;16.23;9.63;;;2.00;99.90;;;;;;5032225;28;20221;-66
2022/03/04 07:38:25;;;;;;;19.90;12.07;;;2.00;99.90;;;;;;5032203;28;20206;-66
2022/03/04 07:40:53;;;;;;;31.80;19.50;;;2.00;99.90;;;;;;5032071;28;20538;-66
2022/03/04 07:43:22;;;;;;;19.07;10.23;;;2.00;99.90;;;;;;5032078;28;20756;-66
2022/03/04 07:45:49;;;;;;;22.27;13.00;;;2.00;99.90;;;;;;5031870;28;20202;-66
2022/03/04 07:48:16;;;;;;;15.57;9.10;;;2.10;99.90;;;;;;5031954;28;20573;-66
2022/03/04 07:50:45;;;;;;;15.23;8.27;;;2.10;99.90;;;;;;5031691;28;20284;-65
2022/03/04 07:53:12;;;;;;;18.27;10.27;;;2.10;99.90;;;;;;5032126;28;20552;-66
2022/03/04 07:55:39;;;;;;;17.60;9.43;;;2.10;99.90;;;;;;5032035;28;20759;-67
2022/03/04 07:58:07;;;;;;;17.20;9.10;;;2.10;99.90;;;;;;5031606;28;20212;-66
2022/03/04 08:00:34;;;;;;;20.70;13.27;;;2.10;99.90;;;;;;5032147;28;20570;-66
2022/03/04 08:03:01;;;;;;;17.40;11.37;;;2.20;99.90;;;;;;5031931;28;20625;-66
2022/03/04 08:05:29;;;;;;;19.63;12.87;;;2.30;99.90;;;;;;5031652;28;20306;-66
2022/03/04 08:07:57;;;;;;;25.60;14.77;;;2.30;99.90;;;;;;5031576;28;20577;-66
2022/03/04 08:10:25;;;;;;;18.33;9.80;;;2.30;99.90;;;;;;5031730;28;20198;-66
2022/03/04 08:12:52;;;;;;;19.00;9.27;;;2.40;99.90;;;;;;5031969;28;20206;-66
2022/03/04 08:15:19;;;;;;;18.53;11.93;;;2.30;99.90;;;;;;5031516;28;20228;-66
2022/03/04 08:17:46;;;;;;;42.87;26.30;;;2.30;99.90;;;;;;5031070;28;20210;-66
2022/03/04 08:20:13;;;;;;;55.43;33.83;;;2.40;99.90;;;;;;5031415;28;20194;-66
2022/03/04 08:22:40;;;;;;;39.13;21.80;;;2.40;99.90;;;;;;5031611;28;20208;-67
2022/03/04 08:25:10;;;;;;;39.77;25.00;;;2.50;99.90;;;;;;5031593;28;20687;-67
2022/03/04 08:27:41;;;;;;;44.37;29.27;;;2.50;99.90;;;;;;5031328;28;20206;-68
2022/03/04 08:30:10;;;;;;;50.70;31.23;;;2.60;99.90;;;;;;5031372;28;20206;-66
2022/03/04 08:32:37;;;;;;;40.33;25.30;;;2.60;99.90;;;;;;5030942;28;20206;-66
2022/03/04 08:35:05;;;;;;;31.60;20.37;;;2.60;99.90;;;;;;5031297;28;20728;-67
2022/03/04 08:37:33;;;;;;;23.67;15.47;;;2.70;99.90;;;;;;5030393;28;20676;-67
2022/03/04 08:40:00;;;;;;;25.80;14.70;;;2.80;99.90;;;;;;5031238;28;20682;-67
2022/03/04 08:42:29;;;;;;;21.40;13.17;;;2.90;99.90;;;;;;5031145;28;20301;-66
2022/03/04 08:44:56;;;;;;;40.80;26.80;;;2.90;99.90;;;;;;5030931;28;20210;-67
2022/03/04 08:47:23;;;;;;;43.30;26.40;;;2.90;99.90;;;;;;5030943;28;20210;-66
2022/03/04 08:49:51;;;;;;;30.23;18.50;;;2.90;99.90;;;;;;5031005;28;20210;-66
2022/03/04 08:52:18;;;;;;;35.53;23.53;;;3.00;99.90;;;;;;5030765;28;20210;-66
2022/03/04 08:54:45;;;;;;;25.83;15.60;;;3.00;99.90;;;;;;5030643;28;20230;-65
2022/03/04 08:57:13;;;;;;;45.83;27.73;;;3.10;99.90;;;;;;5030895;28;20202;-66
2022/03/04 08:59:41;;;;;;;33.63;18.60;;;3.10;99.90;;;;;;5030890;28;20206;-65
2022/03/04 09:02:09;;;;;;;25.27;14.20;;;3.20;99.90;;;;;;5030848;28;20212;-66
2022/03/04 09:04:36;;;;;;;38.93;23.13;;;3.20;99.90;;;;;;5030603;28;20299;-66
2022/03/04 09:07:06;;;;;;;27.00;16.70;;;3.20;99.90;;;;;;5030885;28;20590;-66
2022/03/04 09:09:33;;;;;;;14.17;8.00;;;3.20;99.90;;;;;;5030380;28;20229;-65
2022/03/04 09:12:01;;;;;;;15.70;7.73;;;3.30;99.90;;;;;;5030746;28;20214;-66
2022/03/04 09:14:28;;;;;;;23.50;14.93;;;3.20;99.90;;;;;;5030522;28;20226;-66
2022/03/04 09:16:57;;;;;;;23.80;16.67;;;3.30;99.90;;;;;;5030633;28;20213;-66
2022/03/04 09:19:24;;;;;;;40.30;25.20;;;3.20;99.90;;;;;;5030393;28;20234;-67
2022/03/04 09:21:51;;;;;;;40.50;25.03;;;3.20;99.90;;;;;;5030719;28;20210;-65
2022/03/04 09:24:18;;;;;;;20.40;13.63;;;3.30;99.90;;;;;;5030506;28;20559;-65
2022/03/04 09:26:46;;;;;;;48.60;28.23;;;3.30;99.90;;;;;;5030291;28;20218;-66
2022/03/04 09:29:13;;;;;;;31.00;19.73;;;3.40;99.90;;;;;;5030138;28;20297;-66
2022/03/04 09:31:40;;;;;;;20.47;12.43;;;3.40;99.90;;;;;;5030505;28;20213;-67
2022/03/04 09:34:08;;;;;;;26.67;16.70;;;3.50;99.90;;;;;;5030734;28;20674;-66
2022/03/04 09:36:36;;;;;;;14.07;8.97;;;3.50;99.90;;;;;;5030078;28;20213;-65
2022/03/04 09:39:03;;;;;;;23.07;13.60;;;3.60;99.90;;;;;;5030229;28;20210;-67
2022/03/04 09:41:31;;;;;;;15.83;10.17;;;3.50;99.90;;;;;;5030048;28;20210;-66
2022/03/04 09:43:58;;;;;;;33.87;22.23;;;3.50;99.90;;;;;;5030699;28;20575;-67
2022/03/04 09:46:25;;;;;;;23.37;15.07;;;3.50;99.90;;;;;;5029985;28;20198;-66
2022/03/04 09:48:53;;;;;;;20.67;12.40;;;3.60;99.90;;;;;;5029153;28;20626;-66
2022/03/04 09:51:23;;;;;;;29.10;16.07;;;3.60;99.90;;;;;;5030022;28;20210;-66
2022/03/04 09:53:52;;;;;;;51.00;30.50;;;3.70;99.90;;;;;;5030026;28;20545;-66
2022/03/04 09:56:20;;;;;;;51.67;32.73;;;3.70;99.90;;;;;;5029854;28;20275;-65
2022/03/04 09:58:47;;;;;;;52.30;31.47;;;3.70;99.90;;;;;;5029657;28;20263;-67
2022/03/04 10:01:16;;;;;;;41.53;23.67;;;3.70;99.90;;;;;;5030028;28;20559;-65
2022/03/04 10:03:45;;;;;;;55.13;33.07;;;3.80;99.90;;;;;;5029482;28;20217;-65
2022/03/04 10:06:12;;;;;;;61.80;35.63;;;3.80;99.90;;;;;;5029655;28;20225;-66
2022/03/04 10:08:44;;;;;;;20.97;13.80;;;3.80;99.90;;;;;;5029405;28;20293;-66
2022/03/04 10:11:12;;;;;;;28.97;17.03;;;3.80;99.90;;;;;;5029898;28;20708;-66
2022/03/04 10:13:48;;;;;;;33.83;18.77;;;3.80;99.90;;;;;;5029274;28;20202;-66
2022/03/04 10:16:24;;;;;;;25.33;14.80;;;3.80;99.90;;;;;;5029799;28;20221;-66
2022/03/04 10:19:09;;;;;;;27.10;15.07;;;3.90;99.90;;;;;;5029288;28;20230;-65
2022/03/04 10:21:47;;;;;;;31.90;17.63;;;3.90;99.90;;;;;;5029701;28;20628;-66
2022/03/04 10:24:16;;;;;;;17.73;10.93;;;4.00;99.90;;;;;;5029470;28;20225;-68
2022/03/04 10:26:43;;;;;;;12.80;8.30;;;4.00;99.90;;;;;;5029305;28;20202;-66
2022/03/04 10:29:21;;;;;;;18.10;11.60;;;4.00;99.90;;;;;;5029576;28;20228;-67
2022/03/04 10:32:08;;;;;;;21.57;14.07;;;4.00;99.90;;;;;;5029312;28;20288;-66
2022/03/04 10:34:48;;;;;;;21.73;12.17;;;4.00;99.90;;;;;;5028987;28;20206;-65
2022/03/04 10:37:17;;;;;;;21.97;13.50;;;3.90;99.90;;;;;;5029637;28;20555;-66
2022/03/04 10:40:04;;;;;;;29.57;15.77;;;3.90;99.90;;;;;;5029025;28;20206;-65
2022/03/04 10:42:42;;;;;;;40.00;23.60;;;4.00;99.90;;;;;;5029046;28;20201;-66
2022/03/04 10:45:12;;;;;;;27.03;15.13;;;4.10;99.90;;;;;;5029184;28;20202;-65
2022/03/04 10:47:44;;;;;;;13.47;8.97;;;4.10;99.90;;;;;;5029294;28;20537;-66
2022/03/04 10:50:12;;;;;;;14.93;8.30;;;4.20;99.90;;;;;;5029030;28;20210;-67
2022/03/04 10:52:50;;;;;;;17.67;10.17;;;4.20;99.90;;;;;;5028635;28;20206;-65
2022/03/04 10:55:36;;;;;;;18.60;9.80;;;4.10;99.90;;;;;;5029059;28;20222;-66
2022/03/04 10:58:06;;;;;;;20.10;11.20;;;4.10;99.90;;;;;;5029219;28;20215;-65
2022/03/04 11:00:35;;;;;;;22.93;14.40;;;4.00;99.90;;;;;;5028243;28;20202;-66
2022/03/04 11:03:05;;;;;;;22.27;14.07;;;4.00;99.90;;;;;;5029195;28;20210;-66
2022/03/04 11:05:32;;;;;;;17.93;10.60;;;4.00;99.90;;;;;;5028616;28;20229;-66
2022/03/04 11:08:00;;;;;;;16.60;9.40;;;4.10;99.90;;;;;;5028851;28;20218;-65
2022/03/04 11:10:27;;;;;;;15.50;9.27;;;4.10;99.90;;;;;;5028864;28;20712;-66
2022/03/04 11:12:56;;;;;;;16.77;9.77;;;4.20;99.90;;;;;;5028736;28;20210;-66
2022/03/04 11:15:24;;;;;;;16.97;9.73;;;4.30;99.90;;;;;;5028785;28;20738;-65
2022/03/04 11:17:53;;;;;;;22.93;14.07;;;4.30;99.90;;;;;;5028494;28;20221;-66
2022/03/04 11:20:21;;;;;;;26.90;17.33;;;4.30;99.90;;;;;;5028666;28;20193;-67
2022/03/04 11:22:53;;;;;;;34.57;22.83;;;4.40;99.90;;;;;;5028930;28;20214;-68
2022/03/04 11:25:22;;;;;;;32.57;21.00;;;4.30;99.90;;;;;;5028887;28;20183;-65
2022/03/04 11:27:51;;;;;;;42.50;25.23;;;4.40;99.90;;;;;;5028978;28;20210;-66
2022/03/04 11:30:38;;;;;;;34.23;17.83;;;4.30;99.90;;;;;;5028739;28;20337;-65
2022/03/04 11:33:15;;;;;;;38.77;22.53;;;4.30;99.90;;;;;;5028972;28;20262;-66
2022/03/04 11:35:59;;;;;;;45.97;28.03;;;4.20;99.90;;;;;;5028588;28;20220;-66
2022/03/04 11:38:58;;;;;;;29.87;17.80;;;4.00;99.90;;;;;;5028803;28;20186;-66
2022/03/04 11:41:31;;;;;;;31.87;17.97;;;3.90;99.90;;;;;;5028456;28;20201;-65
2022/03/04 11:44:00;;;;;;;27.77;17.10;;;3.80;99.90;;;;;;5028697;28;20194;-66
2022/03/04 11:46:30;;;;;;;38.77;22.23;;;3.80;99.90;;;;;;5028621;28;20198;-65
2022/03/04 11:49:43;;;;;;;38.97;21.80;;;3.80;99.90;;;;;;5028771;28;20195;-65
2022/03/04 11:52:25;;;;;;;36.20;21.40;;;3.80;99.90;;;;;;5028627;28;20607;-65
2022/03/04 11:55:13;;;;;;;29.40;18.43;;;3.80;99.90;;;;;;5028811;28;20555;-67
2022/03/04 11:57:42;;;;;;;26.70;16.10;;;3.80;99.90;;;;;;5028223;28;20259;-66
2022/03/04 12:00:25;;;;;;;48.23;29.77;;;3.80;99.90;;;;;;5028551;28;20214;-65
2022/03/04 12:02:54;;;;;;;42.10;25.63;;;3.70;99.90;;;;;;5028556;28;20194;-69
2022/03/04 12:05:28;;;;;;;35.47;20.43;;;3.70;99.90;;;;;;5028435;28;20229;-64
2022/03/04 12:08:09;;;;;;;37.07;21.87;;;3.60;99.90;;;;;;5028290;28;20195;-66
2022/03/04 12:10:43;;;;;;;30.83;18.80;;;3.60;99.90;;;;;;5028600;28;20194;-66
2022/03/04 12:13:13;;;;;;;34.70;21.80;;;3.60;99.90;;;;;;5031225;28;20540;-66
2022/03/04 12:15:42;;;;;;;25.10;15.20;;;3.70;99.90;;;;;;5031715;28;20216;-66
2022/03/04 12:18:18;;;;;;;22.07;13.40;;;3.80;99.90;;;;;;5031486;28;20599;-65
2022/03/04 12:21:25;;;;;;;28.03;16.03;;;3.80;99.90;;;;;;5031628;28;20302;-66
2022/03/04 12:23:58;;;;;;;17.60;10.30;;;3.80;99.90;;;;;;5031320;28;20194;-65
2022/03/04 12:26:34;;;;;;;50.20;29.53;;;3.70;99.90;;;;;;5031535;28;20650;-66
2022/03/04 12:29:04;;;;;;;27.97;17.03;;;3.60;99.90;;;;;;5031277;28;20194;-66
2022/03/04 12:31:39;;;;;;;47.10;27.87;;;3.60;99.90;;;;;;5031509;28;20640;-68
2022/03/04 12:34:17;;;;;;;29.57;19.00;;;3.70;99.90;;;;;;5031041;28;20236;-67
2022/03/04 12:36:45;;;;;;;18.00;10.93;;;3.70;99.90;;;;;;5031478;28;20206;-66
2022/03/04 12:39:12;;;;;;;23.03;13.67;;;3.70;99.90;;;;;;5030976;28;20214;-67
2022/03/04 12:41:40;;;;;;;50.13;28.50;;;3.70;99.90;;;;;;5031116;28;20218;-67
2022/03/04 12:44:08;;;;;;;30.33;18.30;;;3.70;99.90;;;;;;5031219;28;20644;-66
2022/03/04 12:46:37;;;;;;;16.57;8.87;;;3.70;99.90;;;;;;5031163;28;20206;-66